sensor_id;sensor_type;location;lat;lon;timestamp;P1;P2;P0
83036;PMS1003;73029;43.592;1.458;2024-02-21T00:01:33;36.00;32.00;23.00
83036;PMS1003;73029;43.592;1.458;2024-02-21T00:03:59;31.00;26.50;19.50
83036;PMS1003;73029;43.592;1.458;2024-02-21T00:06:24;37.25;33.25;22.00
83036;PMS1003;73029;43.592;1.458;2024-02-21T00:08:51;37.50;33.00;23.25
83036;PMS1003;73029;43.592;1.458;2024-02-21T00:11:16;39.75;32.25;22.00
83036;PMS1003;73029;43.592;1.458;2024-02-21T00:13:41;35.33;32.67;23.00
83036;PMS1003;73029;43.592;1.458;2024-02-21T00:16:07;28.00;27.33;21.67
83036;PMS1003;73029;43.592;1.458;2024-02-21T00:18:32;28.33;23.00;18.33
83036;PMS1003;73029;43.592;1.458;2024-02-21T00:20:58;37.75;33.75;23.00
83036;PMS1003;73029;43.592;1.458;2024-02-21T00:23:23;35.50;30.00;20.75
83036;PMS1003;73029;43.592;1.458;2024-02-21T00:25:49;33.33;32.00;21.67
83036;PMS1003;73029;43.592;1.458;2024-02-21T00:28:14;33.50;32.25;22.00
83036;PMS1003;73029;43.592;1.458;2024-02-21T00:30:40;37.25;33.25;23.75
83036;PMS1003;73029;43.592;1.458;2024-02-21T00:33:05;40.00;32.75;23.50
83036;PMS1003;73029;43.592;1.458;2024-02-21T00:35:31;37.25;31.75;22.25
83036;PMS1003;73029;43.592;1.458;2024-02-21T00:37:56;37.00;34.50;23.75
83036;PMS1003;73029;43.592;1.458;2024-02-21T00:40:22;34.75;29.50;22.75
83036;PMS1003;73029;43.592;1.458;2024-02-21T00:42:48;38.00;34.00;23.00
83036;PMS1003;73029;43.592;1.458;2024-02-21T00:45:13;34.75;30.25;22.50
83036;PMS1003;73029;43.592;1.458;2024-02-21T00:47:39;35.25;33.75;24.00
83036;PMS1003;73029;43.592;1.458;2024-02-21T00:50:05;30.00;29.00;22.33
83036;PMS1003;73029;43.592;1.458;2024-02-21T00:52:32;33.75;33.50;23.50
83036;PMS1003;73029;43.592;1.458;2024-02-21T00:54:58;38.75;33.25;22.50
83036;PMS1003;73029;43.592;1.458;2024-02-21T00:57:23;29.75;28.00;21.75
83036;PMS1003;73029;43.592;1.458;2024-02-21T00:59:49;32.00;29.33;22.00
83036;PMS1003;73029;43.592;1.458;2024-02-21T01:02:14;31.75;29.75;21.75
83036;PMS1003;73029;43.592;1.458;2024-02-21T01:04:40;27.25;26.75;20.50
83036;PMS1003;73029;43.592;1.458;2024-02-21T01:07:05;27.00;26.67;21.67
83036;PMS1003;73029;43.592;1.458;2024-02-21T01:09:30;33.75;31.25;22.00
83036;PMS1003;73029;43.592;1.458;2024-02-21T01:11:56;37.00;33.33;23.33
83036;PMS1003;73029;43.592;1.458;2024-02-21T01:14:21;37.50;33.00;22.50
83036;PMS1003;73029;43.592;1.458;2024-02-21T01:16:47;31.00;25.50;19.00
83036;PMS1003;73029;43.592;1.458;2024-02-21T01:19:12;28.75;28.75;20.75
83036;PMS1003;73029;43.592;1.458;2024-02-21T01:21:37;33.00;32.25;22.50
83036;PMS1003;73029;43.592;1.458;2024-02-21T01:24:03;35.75;34.00;24.00
83036;PMS1003;73029;43.592;1.458;2024-02-21T01:26:28;36.75;30.25;22.00
83036;PMS1003;73029;43.592;1.458;2024-02-21T01:28:54;39.00;33.00;22.25
83036;PMS1003;73029;43.592;1.458;2024-02-21T01:31:19;37.75;35.75;25.25
83036;PMS1003;73029;43.592;1.458;2024-02-21T01:33:45;29.75;27.75;22.25
83036;PMS1003;73029;43.592;1.458;2024-02-21T01:36:10;37.50;35.00;24.50
83036;PMS1003;73029;43.592;1.458;2024-02-21T01:38:36;37.50;33.00;23.25
83036;PMS1003;73029;43.592;1.458;2024-02-21T01:41:01;34.25;33.75;24.25
83036;PMS1003;73029;43.592;1.458;2024-02-21T01:43:27;32.50;30.75;23.00
83036;PMS1003;73029;43.592;1.458;2024-02-21T01:45:53;30.00;28.67;21.33
83036;PMS1003;73029;43.592;1.458;2024-02-21T01:48:20;34.67;30.33;21.33
83036;PMS1003;73029;43.592;1.458;2024-02-21T01:50:47;22.33;22.00;18.00
83036;PMS1003;73029;43.592;1.458;2024-02-21T01:53:16;28.67;26.33;19.33
83036;PMS1003;73029;43.592;1.458;2024-02-21T01:55:46;27.33;24.00;19.00
83036;PMS1003;73029;43.592;1.458;2024-02-21T01:58:15;30.67;26.33;18.33
83036;PMS1003;73029;43.592;1.458;2024-02-21T02:00:43;28.33;24.67;19.67
83036;PMS1003;73029;43.592;1.458;2024-02-21T02:03:10;27.33;26.00;20.00
83036;PMS1003;73029;43.592;1.458;2024-02-21T02:05:51;24.67;22.67;16.33
83036;PMS1003;73029;43.592;1.458;2024-02-21T02:08:17;23.67;22.67;17.67
83036;PMS1003;73029;43.592;1.458;2024-02-21T02:10:44;23.67;20.67;17.00
83036;PMS1003;73029;43.592;1.458;2024-02-21T02:13:13;25.33;21.00;16.67
83036;PMS1003;73029;43.592;1.458;2024-02-21T02:15:43;22.67;21.33;16.00
83036;PMS1003;73029;43.592;1.458;2024-02-21T02:18:09;23.33;22.67;17.00
83036;PMS1003;73029;43.592;1.458;2024-02-21T02:20:36;21.67;20.00;16.00
83036;PMS1003;73029;43.592;1.458;2024-02-21T02:23:11;22.00;19.67;14.00
83036;PMS1003;73029;43.592;1.458;2024-02-21T02:25:43;25.00;23.33;17.00
83036;PMS1003;73029;43.592;1.458;2024-02-21T02:28:09;20.00;18.33;15.33
83036;PMS1003;73029;43.592;1.458;2024-02-21T02:30:35;11.33;10.00;4.33
83036;PMS1003;73029;43.592;1.458;2024-02-21T02:33:03;21.00;19.00;13.00
83036;PMS1003;73029;43.592;1.458;2024-02-21T02:35:29;20.00;17.33;12.00
83036;PMS1003;73029;43.592;1.458;2024-02-21T02:37:55;19.67;19.67;14.67
83036;PMS1003;73029;43.592;1.458;2024-02-21T02:40:21;17.00;15.00;12.00
83036;PMS1003;73029;43.592;1.458;2024-02-21T02:42:47;22.33;20.00;13.67
83036;PMS1003;73029;43.592;1.458;2024-02-21T02:45:14;21.33;20.33;14.33
83036;PMS1003;73029;43.592;1.458;2024-02-21T02:47:44;17.00;16.67;13.33
83036;PMS1003;73029;43.592;1.458;2024-02-21T02:50:10;18.00;16.00;12.00
83036;PMS1003;73029;43.592;1.458;2024-02-21T02:52:36;17.00;15.00;12.00
83036;PMS1003;73029;43.592;1.458;2024-02-21T02:55:02;15.33;15.33;10.00
83036;PMS1003;73029;43.592;1.458;2024-02-21T02:57:28;15.33;15.33;11.33
83036;PMS1003;73029;43.592;1.458;2024-02-21T02:59:53;17.67;14.67;10.00
83036;PMS1003;73029;43.592;1.458;2024-02-21T03:02:18;13.33;12.33;10.00
83036;PMS1003;73029;43.592;1.458;2024-02-21T03:04:44;15.33;12.00;9.33
83036;PMS1003;73029;43.592;1.458;2024-02-21T03:07:09;16.00;16.00;12.00
83036;PMS1003;73029;43.592;1.458;2024-02-21T03:09:36;13.00;13.00;10.00
83036;PMS1003;73029;43.592;1.458;2024-02-21T03:12:02;15.00;12.33;10.33
83036;PMS1003;73029;43.592;1.458;2024-02-21T03:14:28;16.67;14.33;10.33
83036;PMS1003;73029;43.592;1.458;2024-02-21T03:16:54;20.00;15.67;11.67
83036;PMS1003;73029;43.592;1.458;2024-02-21T03:19:19;16.33;16.33;11.33
83036;PMS1003;73029;43.592;1.458;2024-02-21T03:21:45;16.33;16.33;12.67
83036;PMS1003;73029;43.592;1.458;2024-02-21T03:24:10;21.00;19.33;14.33
83036;PMS1003;73029;43.592;1.458;2024-02-21T03:26:36;3.00;1.00;0.00
83036;PMS1003;73029;43.592;1.458;2024-02-21T03:29:01;19.67;18.00;12.33
83036;PMS1003;73029;43.592;1.458;2024-02-21T03:31:27;17.00;16.00;12.00
83036;PMS1003;73029;43.592;1.458;2024-02-21T03:33:52;21.33;18.67;12.67
83036;PMS1003;73029;43.592;1.458;2024-02-21T03:36:18;16.00;15.33;11.00
83036;PMS1003;73029;43.592;1.458;2024-02-21T03:38:43;13.00;13.00;11.00
83036;PMS1003;73029;43.592;1.458;2024-02-21T03:41:09;16.67;15.33;11.33
83036;PMS1003;73029;43.592;1.458;2024-02-21T03:43:37;16.33;14.67;11.00
83036;PMS1003;73029;43.592;1.458;2024-02-21T03:46:03;15.00;14.67;10.00
83036;PMS1003;73029;43.592;1.458;2024-02-21T03:48:28;15.67;15.67;12.00
83036;PMS1003;73029;43.592;1.458;2024-02-21T03:50:54;13.00;11.67;9.00
83036;PMS1003;73029;43.592;1.458;2024-02-21T03:53:19;15.33;11.67;10.33
83036;PMS1003;73029;43.592;1.458;2024-02-21T03:55:44;14.00;12.33;10.33
83036;PMS1003;73029;43.592;1.458;2024-02-21T03:58:10;17.00;14.00;10.00
83036;PMS1003;73029;43.592;1.458;2024-02-21T04:00:35;18.67;16.67;10.67
83036;PMS1003;73029;43.592;1.458;2024-02-21T04:03:00;18.00;16.67;12.33
83036;PMS1003;73029;43.592;1.458;2024-02-21T04:05:26;15.67;15.67;11.00
83036;PMS1003;73029;43.592;1.458;2024-02-21T04:07:51;14.67;13.33;11.00
83036;PMS1003;73029;43.592;1.458;2024-02-21T04:10:18;15.33;15.00;11.00
83036;PMS1003;73029;43.592;1.458;2024-02-21T04:12:43;16.33;16.33;11.00
83036;PMS1003;73029;43.592;1.458;2024-02-21T04:15:08;15.00;14.67;10.00
83036;PMS1003;73029;43.592;1.458;2024-02-21T04:17:34;16.67;16.00;11.00
83036;PMS1003;73029;43.592;1.458;2024-02-21T04:20:01;14.67;13.33;8.67
83036;PMS1003;73029;43.592;1.458;2024-02-21T04:22:33;17.33;16.00;10.00
83036;PMS1003;73029;43.592;1.458;2024-02-21T04:24:59;16.00;12.33;10.00
83036;PMS1003;73029;43.592;1.458;2024-02-21T04:27:25;19.33;17.00;11.67
83036;PMS1003;73029;43.592;1.458;2024-02-21T04:29:50;13.33;13.33;10.00
83036;PMS1003;73029;43.592;1.458;2024-02-21T04:32:16;16.33;14.33;12.00
83036;PMS1003;73029;43.592;1.458;2024-02-21T04:34:41;17.00;16.00;11.00
83036;PMS1003;73029;43.592;1.458;2024-02-21T04:37:07;14.33;13.33;11.00
83036;PMS1003;73029;43.592;1.458;2024-02-21T04:39:32;15.67;15.67;10.67
83036;PMS1003;73029;43.592;1.458;2024-02-21T04:41:57;17.33;16.00;13.00
83036;PMS1003;73029;43.592;1.458;2024-02-21T04:44:23;18.67;18.67;12.00
83036;PMS1003;73029;43.592;1.458;2024-02-21T04:46:48;16.67;16.67;12.00
83036;PMS1003;73029;43.592;1.458;2024-02-21T04:49:14;15.00;15.00;11.00
83036;PMS1003;73029;43.592;1.458;2024-02-21T04:51:40;17.67;16.00;12.00
83036;PMS1003;73029;43.592;1.458;2024-02-21T04:54:06;19.00;16.67;13.00
83036;PMS1003;73029;43.592;1.458;2024-02-21T04:56:31;20.00;19.67;12.67
83036;PMS1003;73029;43.592;1.458;2024-02-21T04:58:57;20.00;17.00;13.33
83036;PMS1003;73029;43.592;1.458;2024-02-21T05:01:22;18.67;18.67;15.00
83036;PMS1003;73029;43.592;1.458;2024-02-21T05:03:48;21.00;18.00;15.00
83036;PMS1003;73029;43.592;1.458;2024-02-21T05:06:13;18.67;17.67;13.00
83036;PMS1003;73029;43.592;1.458;2024-02-21T05:08:39;16.33;15.67;12.33
83036;PMS1003;73029;43.592;1.458;2024-02-21T05:11:05;19.67;18.33;14.67
83036;PMS1003;73029;43.592;1.458;2024-02-21T05:13:30;21.00;20.00;14.67
83036;PMS1003;73029;43.592;1.458;2024-02-21T05:15:56;24.00;19.00;14.67
83036;PMS1003;73029;43.592;1.458;2024-02-21T05:18:21;21.33;20.00;15.67
83036;PMS1003;73029;43.592;1.458;2024-02-21T05:20:46;22.67;22.00;16.33
83036;PMS1003;73029;43.592;1.458;2024-02-21T05:23:12;20.33;19.67;15.00
83036;PMS1003;73029;43.592;1.458;2024-02-21T05:25:37;22.00;21.67;17.00
83036;PMS1003;73029;43.592;1.458;2024-02-21T05:28:03;25.00;20.33;15.00
83036;PMS1003;73029;43.592;1.458;2024-02-21T05:30:31;28.33;25.67;19.00
83036;PMS1003;73029;43.592;1.458;2024-02-21T05:32:56;26.67;24.00;17.00
83036;PMS1003;73029;43.592;1.458;2024-02-21T05:35:25;23.00;22.33;17.33
83036;PMS1003;73029;43.592;1.458;2024-02-21T05:37:53;26.33;24.00;16.67
83036;PMS1003;73029;43.592;1.458;2024-02-21T05:40:19;16.00;10.00;6.33
83036;PMS1003;73029;43.592;1.458;2024-02-21T05:42:44;30.33;26.00;19.00
83036;PMS1003;73029;43.592;1.458;2024-02-21T05:45:10;25.33;18.00;14.33
83036;PMS1003;73029;43.592;1.458;2024-02-21T05:47:35;26.00;21.67;16.00
83036;PMS1003;73029;43.592;1.458;2024-02-21T05:50:00;21.00;20.33;13.67
83036;PMS1003;73029;43.592;1.458;2024-02-21T05:52:26;23.67;21.00;17.00
83036;PMS1003;73029;43.592;1.458;2024-02-21T05:54:51;25.33;23.67;18.00
83036;PMS1003;73029;43.592;1.458;2024-02-21T05:57:17;24.67;23.00;16.33
83036;PMS1003;73029;43.592;1.458;2024-02-21T05:59:43;19.33;19.00;14.67
83036;PMS1003;73029;43.592;1.458;2024-02-21T06:02:09;20.67;20.67;15.00
83036;PMS1003;73029;43.592;1.458;2024-02-21T06:04:34;21.33;21.33;15.00
83036;PMS1003;73029;43.592;1.458;2024-02-21T06:07:00;21.00;19.00;15.00
83036;PMS1003;73029;43.592;1.458;2024-02-21T06:09:26;23.33;20.00;15.33
83036;PMS1003;73029;43.592;1.458;2024-02-21T06:11:52;21.33;18.67;15.00
83036;PMS1003;73029;43.592;1.458;2024-02-21T06:14:18;18.67;18.33;15.00
83036;PMS1003;73029;43.592;1.458;2024-02-21T06:16:43;15.00;12.33;9.00
83036;PMS1003;73029;43.592;1.458;2024-02-21T06:19:09;20.00;19.00;13.67
83036;PMS1003;73029;43.592;1.458;2024-02-21T06:21:34;23.33;19.33;14.67
83036;PMS1003;73029;43.592;1.458;2024-02-21T06:24:00;21.00;20.00;15.00
83036;PMS1003;73029;43.592;1.458;2024-02-21T06:26:25;23.33;20.67;14.00
83036;PMS1003;73029;43.592;1.458;2024-02-21T06:28:51;20.33;19.67;14.67
83036;PMS1003;73029;43.592;1.458;2024-02-21T06:31:16;20.67;19.33;14.33
83036;PMS1003;73029;43.592;1.458;2024-02-21T06:33:42;17.67;17.67;11.67
83036;PMS1003;73029;43.592;1.458;2024-02-21T06:36:08;21.33;20.67;15.67
83036;PMS1003;73029;43.592;1.458;2024-02-21T06:38:33;20.33;16.33;13.00
83036;PMS1003;73029;43.592;1.458;2024-02-21T06:40:59;19.67;19.33;14.67
83036;PMS1003;73029;43.592;1.458;2024-02-21T06:43:25;15.33;14.67;10.67
83036;PMS1003;73029;43.592;1.458;2024-02-21T06:45:51;16.00;14.00;11.33
83036;PMS1003;73029;43.592;1.458;2024-02-21T06:48:17;20.33;17.33;14.67
83036;PMS1003;73029;43.592;1.458;2024-02-21T06:50:43;19.33;16.67;12.67
83036;PMS1003;73029;43.592;1.458;2024-02-21T06:53:08;20.67;19.33;13.33
83036;PMS1003;73029;43.592;1.458;2024-02-21T06:55:34;16.33;16.00;14.00
83036;PMS1003;73029;43.592;1.458;2024-02-21T06:58:00;15.33;14.33;11.00
83036;PMS1003;73029;43.592;1.458;2024-02-21T07:00:26;21.00;17.00;15.00
83036;PMS1003;73029;43.592;1.458;2024-02-21T07:02:51;19.67;17.00;13.00
83036;PMS1003;73029;43.592;1.458;2024-02-21T07:05:16;20.67;20.00;14.67
83036;PMS1003;73029;43.592;1.458;2024-02-21T07:07:42;17.00;15.00;11.00
83036;PMS1003;73029;43.592;1.458;2024-02-21T07:10:07;17.00;15.00;12.00
83036;PMS1003;73029;43.592;1.458;2024-02-21T07:12:33;15.00;14.00;10.00
83036;PMS1003;73029;43.592;1.458;2024-02-21T07:15:00;19.00;15.00;10.00
83036;PMS1003;73029;43.592;1.458;2024-02-21T07:17:25;16.33;14.33;10.33
83036;PMS1003;73029;43.592;1.458;2024-02-21T07:19:50;14.33;12.33;10.00
83036;PMS1003;73029;43.592;1.458;2024-02-21T07:22:16;13.33;12.33;10.33
83036;PMS1003;73029;43.592;1.458;2024-02-21T07:24:41;17.67;16.33;11.00
83036;PMS1003;73029;43.592;1.458;2024-02-21T07:27:07;17.67;15.67;12.00
83036;PMS1003;73029;43.592;1.458;2024-02-21T07:29:32;15.67;14.67;10.33
83036;PMS1003;73029;43.592;1.458;2024-02-21T07:31:57;16.00;12.67;10.00
83036;PMS1003;73029;43.592;1.458;2024-02-21T07:34:23;17.67;13.33;9.00
83036;PMS1003;73029;43.592;1.458;2024-02-21T07:36:48;12.67;10.00;10.00
83036;PMS1003;73029;43.592;1.458;2024-02-21T07:39:14;16.00;13.33;10.00
83036;PMS1003;73029;43.592;1.458;2024-02-21T07:41:39;15.67;14.00;10.00
83036;PMS1003;73029;43.592;1.458;2024-02-21T07:44:06;17.00;14.00;9.67
83036;PMS1003;73029;43.592;1.458;2024-02-21T07:46:31;17.67;13.67;9.67
83036;PMS1003;73029;43.592;1.458;2024-02-21T07:48:57;17.33;14.67;10.00
83036;PMS1003;73029;43.592;1.458;2024-02-21T07:51:22;14.33;12.00;9.00
83036;PMS1003;73029;43.592;1.458;2024-02-21T07:53:47;13.67;13.67;10.00
83036;PMS1003;73029;43.592;1.458;2024-02-21T07:56:14;12.33;11.67;9.00
83036;PMS1003;73029;43.592;1.458;2024-02-21T07:58:41;12.67;12.33;9.00
83036;PMS1003;73029;43.592;1.458;2024-02-21T08:01:07;14.67;14.67;10.00
83036;PMS1003;73029;43.592;1.458;2024-02-21T08:03:33;15.33;14.00;10.00
83036;PMS1003;73029;43.592;1.458;2024-02-21T08:05:59;14.67;13.67;9.00
83036;PMS1003;73029;43.592;1.458;2024-02-21T08:08:24;10.33;10.33;9.00
83036;PMS1003;73029;43.592;1.458;2024-02-21T08:10:50;11.00;11.00;8.67
83036;PMS1003;73029;43.592;1.458;2024-02-21T08:13:15;11.33;11.33;9.00
83036;PMS1003;73029;43.592;1.458;2024-02-21T08:15:41;12.00;12.00;8.33
83036;PMS1003;73029;43.592;1.458;2024-02-21T08:18:07;15.33;12.67;9.33
83036;PMS1003;73029;43.592;1.458;2024-02-21T08:20:32;10.67;10.67;7.00
83036;PMS1003;73029;43.592;1.458;2024-02-21T08:22:58;12.33;12.33;8.67
83036;PMS1003;73029;43.592;1.458;2024-02-21T08:25:23;10.33;10.33;7.00
83036;PMS1003;73029;43.592;1.458;2024-02-21T08:27:49;13.00;10.67;8.67
83036;PMS1003;73029;43.592;1.458;2024-02-21T08:30:16;11.67;11.67;8.00
83036;PMS1003;73029;43.592;1.458;2024-02-21T08:32:42;10.67;10.67;8.33
83036;PMS1003;73029;43.592;1.458;2024-02-21T08:35:08;10.33;10.33;8.00
83036;PMS1003;73029;43.592;1.458;2024-02-21T08:37:34;13.33;13.33;9.00
83036;PMS1003;73029;43.592;1.458;2024-02-21T08:40:00;20.00;12.33;9.33
83036;PMS1003;73029;43.592;1.458;2024-02-21T08:42:33;15.00;14.33;9.67
83036;PMS1003;73029;43.592;1.458;2024-02-21T08:44:58;14.00;13.00;8.00
83036;PMS1003;73029;43.592;1.458;2024-02-21T08:47:23;10.00;8.67;7.67
83036;PMS1003;73029;43.592;1.458;2024-02-21T08:49:49;9.00;9.00;7.67
83036;PMS1003;73029;43.592;1.458;2024-02-21T08:52:14;9.67;9.67;7.67
83036;PMS1003;73029;43.592;1.458;2024-02-21T08:54:39;8.33;8.33;7.00
83036;PMS1003;73029;43.592;1.458;2024-02-21T08:57:05;9.33;9.33;6.33
83036;PMS1003;73029;43.592;1.458;2024-02-21T08:59:30;10.67;8.67;7.33
83036;PMS1003;73029;43.592;1.458;2024-02-21T09:01:56;5.33;4.00;2.00
83036;PMS1003;73029;43.592;1.458;2024-02-21T09:04:21;12.67;9.67;8.00
83036;PMS1003;73029;43.592;1.458;2024-02-21T09:06:46;11.00;9.67;7.00
83036;PMS1003;73029;43.592;1.458;2024-02-21T09:09:12;9.00;9.00;7.00
83036;PMS1003;73029;43.592;1.458;2024-02-21T09:11:38;8.67;8.67;7.33
83036;PMS1003;73029;43.592;1.458;2024-02-21T09:14:05;12.33;12.33;9.33
83036;PMS1003;73029;43.592;1.458;2024-02-21T09:16:31;12.67;11.00;8.00
83036;PMS1003;73029;43.592;1.458;2024-02-21T09:18:57;13.67;13.00;10.00
83036;PMS1003;73029;43.592;1.458;2024-02-21T09:21:22;8.33;8.33;7.00
83036;PMS1003;73029;43.592;1.458;2024-02-21T09:23:48;10.00;10.00;8.67
83036;PMS1003;73029;43.592;1.458;2024-02-21T09:26:13;11.33;10.67;8.67
83036;PMS1003;73029;43.592;1.458;2024-02-21T09:28:41;13.33;12.33;9.00
83036;PMS1003;73029;43.592;1.458;2024-02-21T09:31:07;12.67;12.67;10.00
83036;PMS1003;73029;43.592;1.458;2024-02-21T09:33:32;11.00;10.00;7.67
83036;PMS1003;73029;43.592;1.458;2024-02-21T09:35:57;15.67;12.00;11.00
83036;PMS1003;73029;43.592;1.458;2024-02-21T09:38:23;16.67;12.00;9.33
83036;PMS1003;73029;43.592;1.458;2024-02-21T09:40:53;11.33;9.67;6.33
83036;PMS1003;73029;43.592;1.458;2024-02-21T09:43:25;12.00;12.00;9.00
83036;PMS1003;73029;43.592;1.458;2024-02-21T09:45:51;13.67;13.67;10.00
83036;PMS1003;73029;43.592;1.458;2024-02-21T09:51:02;11.00;11.00;9.00
83036;PMS1003;73029;43.592;1.458;2024-02-21T09:53:28;13.33;11.00;6.67
83036;PMS1003;73029;43.592;1.458;2024-02-21T09:55:55;11.67;10.67;7.00
83036;PMS1003;73029;43.592;1.458;2024-02-21T09:58:22;9.33;6.33;4.33
83036;PMS1003;73029;43.592;1.458;2024-02-21T10:00:49;8.33;6.33;5.00
83036;PMS1003;73029;43.592;1.458;2024-02-21T10:03:14;7.00;6.67;4.33
83036;PMS1003;73029;43.592;1.458;2024-02-21T10:05:45;8.33;5.67;4.00
83036;PMS1003;73029;43.592;1.458;2024-02-21T10:08:14;7.67;7.67;4.67
83036;PMS1003;73029;43.592;1.458;2024-02-21T10:10:42;7.00;7.00;4.67
83036;PMS1003;73029;43.592;1.458;2024-02-21T10:13:08;5.33;5.33;3.67
83036;PMS1003;73029;43.592;1.458;2024-02-21T10:15:35;5.00;3.33;3.00
83036;PMS1003;73029;43.592;1.458;2024-02-21T10:18:01;2.67;2.33;1.67
83036;PMS1003;73029;43.592;1.458;2024-02-21T10:20:28;4.67;4.00;3.00
83036;PMS1003;73029;43.592;1.458;2024-02-21T10:23:04;4.00;3.00;3.00
83036;PMS1003;73029;43.592;1.458;2024-02-21T10:25:36;3.00;3.00;2.00
83036;PMS1003;73029;43.592;1.458;2024-02-21T10:28:13;3.00;3.00;3.00
83036;PMS1003;73029;43.592;1.458;2024-02-21T10:30:49;4.00;2.33;1.67
83036;PMS1003;73029;43.592;1.458;2024-02-21T10:33:16;3.33;3.33;2.67
83036;PMS1003;73029;43.592;1.458;2024-02-21T10:35:41;4.33;4.33;3.00
83036;PMS1003;73029;43.592;1.458;2024-02-21T10:38:06;4.00;4.00;3.00
83036;PMS1003;73029;43.592;1.458;2024-02-21T10:40:32;4.00;4.00;2.67
83036;PMS1003;73029;43.592;1.458;2024-02-21T10:42:58;4.00;3.00;2.00
83036;PMS1003;73029;43.592;1.458;2024-02-21T10:45:34;2.00;2.00;1.00
83036;PMS1003;73029;43.592;1.458;2024-02-21T10:48:14;2.00;2.00;1.00
83036;PMS1003;73029;43.592;1.458;2024-02-21T10:53:29;3.00;1.00;0.67
83036;PMS1003;73029;43.592;1.458;2024-02-21T10:56:40;2.00;1.67;1.67
83036;PMS1003;73029;43.592;1.458;2024-02-21T10:58:57;1.00;1.00;1.00
83036;PMS1003;73029;43.592;1.458;2024-02-21T11:01:23;3.00;2.00;1.00
83036;PMS1003;73029;43.592;1.458;2024-02-21T11:03:49;2.33;2.00;1.00
83036;PMS1003;73029;43.592;1.458;2024-02-21T11:06:17;3.00;3.00;2.67
83036;PMS1003;73029;43.592;1.458;2024-02-21T11:08:45;3.00;3.00;2.00
83036;PMS1003;73029;43.592;1.458;2024-02-21T11:11:12;3.00;2.00;2.00
83036;PMS1003;73029;43.592;1.458;2024-02-21T11:13:42;2.00;2.00;2.00
83036;PMS1003;73029;43.592;1.458;2024-02-21T11:16:11;1.33;0.33;0.33
83036;PMS1003;73029;43.592;1.458;2024-02-21T11:18:46;2.33;2.33;1.00
83036;PMS1003;73029;43.592;1.458;2024-02-21T11:21:12;1.00;1.00;1.00
83036;PMS1003;73029;43.592;1.458;2024-02-21T11:23:37;3.00;1.00;1.00
83036;PMS1003;73029;43.592;1.458;2024-02-21T11:26:09;0.00;0.00;0.00
83036;PMS1003;73029;43.592;1.458;2024-02-21T11:28:35;1.00;1.00;1.00
83036;PMS1003;73029;43.592;1.458;2024-02-21T11:31:13;1.33;1.33;1.00
83036;PMS1003;73029;43.592;1.458;2024-02-21T11:33:39;1.00;1.00;0.00
83036;PMS1003;73029;43.592;1.458;2024-02-21T11:36:07;1.00;1.00;1.00
83036;PMS1003;73029;43.592;1.458;2024-02-21T11:38:35;1.33;1.33;1.00
83036;PMS1003;73029;43.592;1.458;2024-02-21T11:41:01;1.00;1.00;1.00
83036;PMS1003;73029;43.592;1.458;2024-02-21T11:43:27;1.33;1.33;1.00
83036;PMS1003;73029;43.592;1.458;2024-02-21T11:45:59;1.00;1.00;1.00
83036;PMS1003;73029;43.592;1.458;2024-02-21T11:48:26;1.33;1.33;1.00
83036;PMS1003;73029;43.592;1.458;2024-02-21T11:50:52;2.00;1.00;1.00
83036;PMS1003;73029;43.592;1.458;2024-02-21T11:53:20;1.00;1.00;0.00
83036;PMS1003;73029;43.592;1.458;2024-02-21T11:55:45;2.00;1.00;1.00
83036;PMS1003;73029;43.592;1.458;2024-02-21T11:58:11;2.00;1.67;1.00
83036;PMS1003;73029;43.592;1.458;2024-02-21T12:00:36;3.33;1.00;0.33
83036;PMS1003;73029;43.592;1.458;2024-02-21T12:03:02;0.00;0.00;0.00
83036;PMS1003;73029;43.592;1.458;2024-02-21T12:05:29;1.00;1.00;0.00
83036;PMS1003;73029;43.592;1.458;2024-02-21T12:07:55;0.00;0.00;0.00
83036;PMS1003;73029;43.592;1.458;2024-02-21T12:10:20;1.00;1.00;0.33
83036;PMS1003;73029;43.592;1.458;2024-02-21T12:12:46;1.00;1.00;1.00
83036;PMS1003;73029;43.592;1.458;2024-02-21T12:15:11;0.00;0.00;0.00
83036;PMS1003;73029;43.592;1.458;2024-02-21T12:17:37;1.00;1.00;1.00
83036;PMS1003;73029;43.592;1.458;2024-02-21T12:20:05;1.00;1.00;1.00
83036;PMS1003;73029;43.592;1.458;2024-02-21T12:22:35;0.00;0.00;0.00
83036;PMS1003;73029;43.592;1.458;2024-02-21T12:25:04;0.00;0.00;0.00
83036;PMS1003;73029;43.592;1.458;2024-02-21T12:27:40;1.67;1.67;1.33
83036;PMS1003;73029;43.592;1.458;2024-02-21T12:30:06;1.00;1.00;1.00
83036;PMS1003;73029;43.592;1.458;2024-02-21T12:32:35;1.00;1.00;1.00
83036;PMS1003;73029;43.592;1.458;2024-02-21T12:35:00;1.00;1.00;1.00
83036;PMS1003;73029;43.592;1.458;2024-02-21T12:37:26;3.67;3.00;2.00
83036;PMS1003;73029;43.592;1.458;2024-02-21T12:39:52;2.00;2.00;1.00
83036;PMS1003;73029;43.592;1.458;2024-02-21T12:42:17;1.00;1.00;1.00
83036;PMS1003;73029;43.592;1.458;2024-02-21T12:44:43;0.33;0.33;0.00
83036;PMS1003;73029;43.592;1.458;2024-02-21T12:47:08;2.00;2.00;1.33
83036;PMS1003;73029;43.592;1.458;2024-02-21T12:49:33;2.00;2.00;2.00
83036;PMS1003;73029;43.592;1.458;2024-02-21T12:51:59;1.00;1.00;1.00
83036;PMS1003;73029;43.592;1.458;2024-02-21T12:54:24;1.00;1.00;1.00
83036;PMS1003;73029;43.592;1.458;2024-02-21T12:56:51;2.00;2.00;1.00
83036;PMS1003;73029;43.592;1.458;2024-02-21T12:59:16;1.00;1.00;1.00
83036;PMS1003;73029;43.592;1.458;2024-02-21T13:01:42;0.00;0.00;0.00
83036;PMS1003;73029;43.592;1.458;2024-02-21T13:04:07;1.00;1.00;1.00
83036;PMS1003;73029;43.592;1.458;2024-02-21T13:06:33;2.00;2.00;1.00
83036;PMS1003;73029;43.592;1.458;2024-02-21T13:08:58;2.00;2.00;1.00
83036;PMS1003;73029;43.592;1.458;2024-02-21T13:11:24;1.00;1.00;0.33
83036;PMS1003;73029;43.592;1.458;2024-02-21T13:13:52;1.00;1.00;0.00
83036;PMS1003;73029;43.592;1.458;2024-02-21T13:16:18;3.33;2.00;2.00
83036;PMS1003;73029;43.592;1.458;2024-02-21T13:18:43;2.33;1.00;0.00
83036;PMS1003;73029;43.592;1.458;2024-02-21T13:21:10;1.33;1.00;1.00
83036;PMS1003;73029;43.592;1.458;2024-02-21T13:23:35;1.00;1.00;1.00
83036;PMS1003;73029;43.592;1.458;2024-02-21T13:26:01;0.33;0.33;0.33
83036;PMS1003;73029;43.592;1.458;2024-02-21T13:28:26;1.00;1.00;1.00
83036;PMS1003;73029;43.592;1.458;2024-02-21T13:30:52;0.67;0.67;0.67
83036;PMS1003;73029;43.592;1.458;2024-02-21T13:33:18;1.00;1.00;1.00
83036;PMS1003;73029;43.592;1.458;2024-02-21T13:35:43;0.33;0.33;0.33
83036;PMS1003;73029;43.592;1.458;2024-02-21T13:38:09;1.00;1.00;1.00
83036;PMS1003;73029;43.592;1.458;2024-02-21T13:40:35;1.00;1.00;1.00
83036;PMS1003;73029;43.592;1.458;2024-02-21T13:43:00;0.00;0.00;0.00
83036;PMS1003;73029;43.592;1.458;2024-02-21T13:45:26;2.67;0.67;0.67
83036;PMS1003;73029;43.592;1.458;2024-02-21T13:47:51;1.00;1.00;0.67
83036;PMS1003;73029;43.592;1.458;2024-02-21T13:50:17;1.00;1.00;0.00
83036;PMS1003;73029;43.592;1.458;2024-02-21T13:52:43;1.00;1.00;0.67
83036;PMS1003;73029;43.592;1.458;2024-02-21T13:55:09;0.00;0.00;0.00
83036;PMS1003;73029;43.592;1.458;2024-02-21T13:57:37;0.67;0.67;0.67
83036;PMS1003;73029;43.592;1.458;2024-02-21T14:00:03;0.67;0.67;0.67